Apple River, Illinois
Current Conditions -  °F | °C
As of 10:15 AM on Wednesday 26 Nov 2014 (Local Time) from KPVB Reporting Station
Overcast Overcast  
Wind Chill: -13°   Ceiling: 300
Heat Index: -7°   Visibility: 2mi
Dew Point: -7°   Wind: 10mph
Humidity: 96%   Direction: 100°E
Pressure: 30.11"   Gusts: NA
Location:  42.51°N, 90.1°W
Report Text: KPVB 261615Z AUTO 10009KT 2SM OVC003 M06/M07 A3011 RMK AO1 T10651071
Loading
Personal Weather Stations






























Interactive Weather Map New forecast layout! Learn more

10-Day Weather Forecast

Advertisements
Track Severe Weather on mobile